Time;durP1;ratioP1;P1;durP2;ratioP2;P2;SDS_P1;SDS_P2;PMS_P1;PMS_P2;Temp;Humidity;BMP_temperature;BMP_pressure;BME280_temperature;BME280_humidity;BME280_pressure;Samples;Min_cycle;Max_cycle;Signal;HPM_P1;HPM_P2
2022/05/28 00:00:00;;;;;;;0.5;0.5;;;;;;;12.9;100.0;101900;;;;
2022/05/28 00:01:00;;;;;;;0.5;0.5;;;;;;;12.9;100.0;101900;;;;
2022/05/28 00:02:02;;;;;;;0.5;0.5;;;;;;;13.0;100.0;101900;;;;
2022/05/28 00:03:01;;;;;;;0.5;0.5;;;;;;;13.0;100.0;101900;;;;
2022/05/28 00:04:04;;;;;;;0.5;0.5;;;;;;;13.0;100.0;101900;;;;
2022/05/28 00:05:00;;;;;;;0.5;0.5;;;;;;;13.0;100.0;101900;;;;
2022/05/28 00:06:00;;;;;;;0.5;0.5;;;;;;;13.1;100.0;101900;;;;
2022/05/28 00:07:02;;;;;;;0.5;0.5;;;;;;;13.1;100.0;101900;;;;
2022/05/28 00:08:00;;;;;;;0.5;0.5;;;;;;;12.9;100.0;101900;;;;
2022/05/28 00:09:00;;;;;;;0.5;0.5;;;;;;;12.9;100.0;101900;;;;
2022/05/28 00:10:00;;;;;;;0.5;0.5;;;;;;;12.9;100.0;101900;;;;
2022/05/28 00:11:00;;;;;;;0.5;0.5;;;;;;;12.9;100.0;101900;;;;
2022/05/28 00:12:00;;;;;;;0.5;0.5;;;;;;;12.9;100.0;101890;;;;
2022/05/28 00:13:00;;;;;;;0.6;0.6;;;;;;;12.9;100.0;101890;;;;
2022/05/28 00:14:01;;;;;;;0.6;0.6;;;;;;;12.9;100.0;101890;;;;
2022/05/28 00:15:00;;;;;;;0.6;0.6;;;;;;;12.9;100.0;101890;;;;
2022/05/28 00:16:00;;;;;;;0.6;0.6;;;;;;;12.8;100.0;101890;;;;
2022/05/28 00:17:00;;;;;;;0.6;0.6;;;;;;;12.8;100.0;101890;;;;
2022/05/28 00:18:01;;;;;;;0.6;0.6;;;;;;;12.8;100.0;101890;;;;
2022/05/28 00:19:00;;;;;;;0.6;0.6;;;;;;;12.8;100.0;101890;;;;
2022/05/28 00:20:00;;;;;;;0.6;0.6;;;;;;;12.8;100.0;101890;;;;
2022/05/28 00:21:02;;;;;;;0.6;0.6;;;;;;;12.8;100.0;101890;;;;
2022/05/28 00:22:00;;;;;;;0.6;0.6;;;;;;;12.7;100.0;101880;;;;
2022/05/28 00:23:00;;;;;;;0.6;0.6;;;;;;;12.7;100.0;101880;;;;
2022/05/28 00:24:00;;;;;;;0.6;0.6;;;;;;;12.6;100.0;101890;;;;
2022/05/28 00:25:00;;;;;;;0.6;0.6;;;;;;;12.6;100.0;101890;;;;
2022/05/28 00:26:00;;;;;;;0.6;0.6;;;;;;;12.7;100.0;101890;;;;
2022/05/28 00:27:00;;;;;;;0.6;0.6;;;;;;;12.7;100.0;101890;;;;
2022/05/28 00:28:01;;;;;;;0.6;0.6;;;;;;;12.7;100.0;101880;;;;
2022/05/28 00:29:00;;;;;;;0.6;0.6;;;;;;;12.7;100.0;101880;;;;
2022/05/28 00:30:00;;;;;;;0.6;0.6;;;;;;;12.6;100.0;101890;;;;
2022/05/28 00:31:00;;;;;;;0.6;0.6;;;;;;;12.6;100.0;101890;;;;
2022/05/28 00:32:00;;;;;;;0.6;0.6;;;;;;;12.5;100.0;101890;;;;
2022/05/28 00:33:00;;;;;;;0.7;0.7;;;;;;;12.5;100.0;101890;;;;
2022/05/28 00:34:00;;;;;;;0.7;0.7;;;;;;;12.6;100.0;101890;;;;
2022/05/28 00:35:00;;;;;;;0.7;0.7;;;;;;;12.6;100.0;101890;;;;
2022/05/28 00:36:00;;;;;;;0.7;0.7;;;;;;;12.7;100.0;101890;;;;
2022/05/28 00:37:00;;;;;;;0.7;0.7;;;;;;;12.7;100.0;101890;;;;
2022/05/28 00:38:00;;;;;;;0.7;0.7;;;;;;;12.7;100.0;101880;;;;
2022/05/28 00:39:00;;;;;;;0.7;0.7;;;;;;;12.7;100.0;101880;;;;
2022/05/28 00:40:01;;;;;;;0.7;0.7;;;;;;;12.6;100.0;101880;;;;
2022/05/28 00:41:00;;;;;;;0.7;0.7;;;;;;;12.6;100.0;101880;;;;
2022/05/28 00:42:00;;;;;;;0.7;0.7;;;;;;;12.6;100.0;101870;;;;
2022/05/28 00:43:01;;;;;;;0.7;0.7;;;;;;;12.6;100.0;101870;;;;
2022/05/28 00:44:02;;;;;;;0.7;0.7;;;;;;;12.6;100.0;101870;;;;
2022/05/28 00:45:00;;;;;;;0.7;0.7;;;;;;;12.6;100.0;101870;;;;
2022/05/28 00:46:03;;;;;;;0.7;0.7;;;;;;;12.6;100.0;101870;;;;
2022/05/28 00:47:00;;;;;;;0.7;0.7;;;;;;;12.6;100.0;101870;;;;
2022/05/28 00:48:02;;;;;;;0.7;0.7;;;;;;;12.7;100.0;101870;;;;
2022/05/28 00:49:03;;;;;;;0.7;0.7;;;;;;;12.7;100.0;101870;;;;
2022/05/28 00:50:02;;;;;;;0.7;0.7;;;;;;;12.7;100.0;101870;;;;
2022/05/28 00:51:07;;;;;;;0.7;0.7;;;;;;;12.7;100.0;101870;;;;
2022/05/28 00:52:02;;;;;;;0.7;0.7;;;;;;;12.8;100.0;101870;;;;
2022/05/28 00:53:00;;;;;;;0.7;0.7;;;;;;;12.8;100.0;101870;;;;
2022/05/28 00:54:02;;;;;;;0.7;0.7;;;;;;;12.7;100.0;101860;;;;
2022/05/28 00:55:00;;;;;;;0.7;0.7;;;;;;;12.7;100.0;101860;;;;
2022/05/28 00:56:01;;;;;;;0.7;0.7;;;;;;;12.6;100.0;101860;;;;
2022/05/28 00:57:01;;;;;;;0.7;0.7;;;;;;;12.6;100.0;101860;;;;
2022/05/28 00:58:01;;;;;;;0.7;0.7;;;;;;;12.6;100.0;101870;;;;
2022/05/28 00:59:00;;;;;;;0.7;0.7;;;;;;;12.6;100.0;101870;;;;
2022/05/28 01:00:00;;;;;;;0.7;0.7;;;;;;;12.7;100.0;101870;;;;
2022/05/28 01:01:02;;;;;;;0.7;0.7;;;;;;;12.7;100.0;101870;;;;
2022/05/28 01:02:04;;;;;;;0.7;0.7;;;;;;;12.6;100.0;101870;;;;
2022/05/28 01:03:10;;;;;;;0.7;0.7;;;;;;;12.6;100.0;101870;;;;
2022/05/28 01:04:01;;;;;;;0.7;0.7;;;;;;;12.6;100.0;101870;;;;
2022/05/28 01:05:05;;;;;;;0.7;0.7;;;;;;;12.6;100.0;101870;;;;
2022/05/28 01:06:01;;;;;;;0.7;0.7;;;;;;;12.6;100.0;101870;;;;
2022/05/28 01:07:08;;;;;;;0.7;0.7;;;;;;;12.6;100.0;101870;;;;
2022/05/28 01:08:10;;;;;;;0.7;0.7;;;;;;;12.6;100.0;101870;;;;
2022/05/28 01:09:03;;;;;;;0.7;0.7;;;;;;;12.6;100.0;101870;;;;
2022/05/28 01:10:10;;;;;;;0.7;0.7;;;;;;;12.6;100.0;101870;;;;
2022/05/28 01:11:10;;;;;;;0.7;0.7;;;;;;;12.6;100.0;101870;;;;
2022/05/28 01:12:10;;;;;;;0.7;0.7;;;;;;;12.6;100.0;101870;;;;
2022/05/28 01:13:10;;;;;;;0.7;0.7;;;;;;;12.6;100.0;101870;;;;
2022/05/28 01:14:10;;;;;;;0.7;0.7;;;;;;;12.4;100.0;101860;;;;
2022/05/28 01:15:05;;;;;;;0.7;0.7;;;;;;;12.4;100.0;101860;;;;
2022/05/28 01:16:09;;;;;;;0.7;0.7;;;;;;;12.4;100.0;101860;;;;
2022/05/28 01:17:04;;;;;;;0.7;0.7;;;;;;;12.4;100.0;101860;;;;
2022/05/28 01:18:04;;;;;;;0.7;0.7;;;;;;;12.5;100.0;101860;;;;
2022/05/28 01:19:06;;;;;;;0.7;0.7;;;;;;;12.5;100.0;101860;;;;
2022/05/28 01:20:04;;;;;;;0.7;0.7;;;;;;;12.6;100.0;101860;;;;
2022/05/28 01:21:04;;;;;;;0.7;0.7;;;;;;;12.6;100.0;101860;;;;
2022/05/28 01:22:07;;;;;;;0.7;0.7;;;;;;;12.6;100.0;101870;;;;
2022/05/28 01:23:03;;;;;;;0.7;0.7;;;;;;;12.6;100.0;101870;;;;
2022/05/28 01:24:00;;;;;;;0.7;0.7;;;;;;;12.3;100.0;101860;;;;
2022/05/28 01:25:10;;;;;;;0.7;0.7;;;;;;;12.3;100.0;101860;;;;
2022/05/28 01:26:05;;;;;;;0.7;0.7;;;;;;;12.3;100.0;101870;;;;
2022/05/28 01:27:03;;;;;;;0.7;0.7;;;;;;;12.3;100.0;101870;;;;
2022/05/28 01:28:04;;;;;;;0.7;0.7;;;;;;;12.4;100.0;101860;;;;
2022/05/28 01:29:02;;;;;;;0.7;0.7;;;;;;;12.4;100.0;101860;;;;
2022/05/28 01:30:04;;;;;;;0.7;0.7;;;;;;;12.4;100.0;101870;;;;
2022/05/28 01:31:02;;;;;;;0.7;0.7;;;;;;;12.4;100.0;101870;;;;
2022/05/28 01:32:00;;;;;;;0.7;0.7;;;;;;;12.4;100.0;101870;;;;
2022/05/28 01:33:01;;;;;;;0.7;0.7;;;;;;;12.4;100.0;101870;;;;
2022/05/28 01:34:01;;;;;;;0.7;0.7;;;;;;;12.3;100.0;101860;;;;
2022/05/28 01:35:01;;;;;;;0.7;0.7;;;;;;;12.3;100.0;101860;;;;
2022/05/28 01:36:00;;;;;;;0.7;0.7;;;;;;;12.3;100.0;101870;;;;
2022/05/28 01:37:01;;;;;;;0.7;0.7;;;;;;;12.3;100.0;101870;;;;
2022/05/28 01:38:01;;;;;;;0.7;0.7;;;;;;;12.3;100.0;101870;;;;
2022/05/28 01:39:00;;;;;;;0.7;0.7;;;;;;;12.3;100.0;101870;;;;
2022/05/28 01:40:01;;;;;;;0.7;0.7;;;;;;;12.1;100.0;101870;;;;
2022/05/28 01:41:01;;;;;;;0.7;0.7;;;;;;;12.1;100.0;101870;;;;
2022/05/28 01:42:01;;;;;;;0.7;0.7;;;;;;;12.1;100.0;101860;;;;
2022/05/28 01:43:03;;;;;;;0.7;0.7;;;;;;;12.1;100.0;101860;;;;
2022/05/28 01:44:00;;;;;;;0.7;0.7;;;;;;;12.2;100.0;101860;;;;
2022/05/28 01:45:00;;;;;;;0.7;0.7;;;;;;;12.2;100.0;101860;;;;
2022/05/28 01:46:00;;;;;;;0.7;0.7;;;;;;;12.1;100.0;101860;;;;
2022/05/28 01:47:00;;;;;;;0.7;0.7;;;;;;;12.1;100.0;101860;;;;
2022/05/28 01:48:01;;;;;;;0.7;0.7;;;;;;;12.0;100.0;101860;;;;
2022/05/28 01:49:00;;;;;;;0.7;0.7;;;;;;;12.0;100.0;101860;;;;
2022/05/28 01:50:01;;;;;;;0.7;0.7;;;;;;;12.1;100.0;101860;;;;
2022/05/28 01:51:01;;;;;;;0.7;0.7;;;;;;;12.1;100.0;101860;;;;
2022/05/28 01:52:01;;;;;;;0.7;0.7;;;;;;;12.1;100.0;101860;;;;
2022/05/28 01:53:02;;;;;;;1.1;1.1;;;;;;;12.1;100.0;101860;;;;
2022/05/28 01:54:09;;;;;;;1.1;1.1;;;;;;;12.1;100.0;101860;;;;
2022/05/28 01:55:01;;;;;;;1.1;1.1;;;;;;;12.1;100.0;101860;;;;
2022/05/28 01:56:00;;;;;;;1.1;1.1;;;;;;;12.2;100.0;101870;;;;
2022/05/28 01:57:00;;;;;;;1.1;1.1;;;;;;;12.2;100.0;101870;;;;
2022/05/28 01:58:00;;;;;;;1.1;1.1;;;;;;;12.2;100.0;101860;;;;
2022/05/28 01:59:00;;;;;;;1.1;1.1;;;;;;;12.2;100.0;101860;;;;
2022/05/28 02:00:00;;;;;;;1.1;1.1;;;;;;;12.1;100.0;101870;;;;
2022/05/28 02:01:01;;;;;;;1.1;1.1;;;;;;;12.1;100.0;101870;;;;
2022/05/28 02:02:01;;;;;;;1.1;1.1;;;;;;;12.2;100.0;101870;;;;
2022/05/28 02:03:01;;;;;;;1.1;1.1;;;;;;;12.2;100.0;101870;;;;
2022/05/28 02:04:01;;;;;;;1.1;1.1;;;;;;;12.2;100.0;101870;;;;
2022/05/28 02:05:00;;;;;;;1.1;1.1;;;;;;;12.2;100.0;101870;;;;
2022/05/28 02:06:00;;;;;;;1.1;1.1;;;;;;;12.1;100.0;101870;;;;
2022/05/28 02:07:02;;;;;;;1.1;1.1;;;;;;;12.1;100.0;101870;;;;
2022/05/28 02:08:00;;;;;;;1.1;1.1;;;;;;;12.1;100.0;101870;;;;
2022/05/28 02:09:00;;;;;;;1.1;1.1;;;;;;;12.1;100.0;101870;;;;
2022/05/28 02:10:02;;;;;;;1.1;1.1;;;;;;;12.2;100.0;101870;;;;
2022/05/28 02:11:08;;;;;;;1.1;1.1;;;;;;;12.2;100.0;101870;;;;
2022/05/28 02:12:07;;;;;;;0.9;0.9;;;;;;;12.1;100.0;101860;;;;
2022/05/28 02:13:10;;;;;;;0.9;0.9;;;;;;;12.1;100.0;101860;;;;
2022/05/28 02:14:00;;;;;;;0.9;0.9;;;;;;;12.1;100.0;101860;;;;
2022/05/28 02:15:10;;;;;;;0.9;0.9;;;;;;;12.1;100.0;101860;;;;
2022/05/28 02:16:04;;;;;;;0.9;0.9;;;;;;;12.1;100.0;101860;;;;
2022/05/28 02:17:10;;;;;;;0.9;0.9;;;;;;;12.1;100.0;101860;;;;
2022/05/28 02:18:10;;;;;;;0.9;0.9;;;;;;;12.1;100.0;101850;;;;
2022/05/28 02:19:01;;;;;;;0.9;0.9;;;;;;;12.1;100.0;101850;;;;
2022/05/28 02:20:06;;;;;;;0.9;0.9;;;;;;;12.1;100.0;101850;;;;
2022/05/28 02:21:03;;;;;;;0.9;0.9;;;;;;;12.1;100.0;101850;;;;
2022/05/28 02:22:03;;;;;;;0.9;0.9;;;;;;;12.1;100.0;101850;;;;
2022/05/28 02:23:07;;;;;;;0.9;0.9;;;;;;;12.1;100.0;101850;;;;
2022/05/28 02:24:04;;;;;;;0.9;0.9;;;;;;;12.1;100.0;101850;;;;
2022/05/28 02:25:04;;;;;;;0.9;0.9;;;;;;;12.1;100.0;101850;;;;
2022/05/28 02:26:03;;;;;;;0.9;0.9;;;;;;;12.1;100.0;101850;;;;
2022/05/28 02:27:02;;;;;;;0.9;0.9;;;;;;;12.1;100.0;101850;;;;
2022/05/28 02:28:01;;;;;;;0.9;0.9;;;;;;;12.1;100.0;101840;;;;
2022/05/28 02:29:00;;;;;;;0.9;0.9;;;;;;;12.1;100.0;101840;;;;
2022/05/28 02:30:01;;;;;;;0.9;0.9;;;;;;;12.1;100.0;101840;;;;
2022/05/28 02:31:09;;;;;;;0.9;0.9;;;;;;;12.1;100.0;101840;;;;
2022/05/28 02:32:10;;;;;;;0.6;0.6;;;;;;;12.1;100.0;101840;;;;
2022/05/28 02:33:01;;;;;;;0.6;0.6;;;;;;;12.1;100.0;101840;;;;
2022/05/28 02:34:00;;;;;;;0.6;0.6;;;;;;;12.0;100.0;101840;;;;
2022/05/28 02:35:00;;;;;;;0.6;0.6;;;;;;;12.0;100.0;101840;;;;
2022/05/28 02:36:00;;;;;;;0.6;0.6;;;;;;;12.0;100.0;101840;;;;
2022/05/28 02:37:00;;;;;;;0.6;0.6;;;;;;;12.0;100.0;101840;;;;
2022/05/28 02:38:00;;;;;;;0.6;0.6;;;;;;;12.0;100.0;101840;;;;
2022/05/28 02:39:00;;;;;;;0.6;0.6;;;;;;;12.0;100.0;101840;;;;
2022/05/28 02:40:01;;;;;;;0.6;0.6;;;;;;;11.9;100.0;101830;;;;
2022/05/28 02:41:00;;;;;;;0.6;0.6;;;;;;;11.9;100.0;101830;;;;
2022/05/28 02:42:00;;;;;;;0.6;0.6;;;;;;;11.8;100.0;101830;;;;
2022/05/28 02:43:01;;;;;;;0.6;0.6;;;;;;;11.8;100.0;101830;;;;
2022/05/28 02:44:00;;;;;;;0.6;0.6;;;;;;;11.8;100.0;101830;;;;
2022/05/28 02:45:00;;;;;;;0.6;0.6;;;;;;;11.8;100.0;101830;;;;
2022/05/28 02:46:00;;;;;;;0.6;0.6;;;;;;;11.8;100.0;101830;;;;
2022/05/28 02:47:00;;;;;;;0.6;0.6;;;;;;;11.8;100.0;101830;;;;
2022/05/28 02:48:00;;;;;;;0.6;0.6;;;;;;;11.8;100.0;101830;;;;
2022/05/28 02:49:01;;;;;;;0.6;0.6;;;;;;;11.8;100.0;101830;;;;
2022/05/28 02:50:00;;;;;;;0.6;0.6;;;;;;;11.7;100.0;101830;;;;
2022/05/28 02:51:02;;;;;;;0.6;0.6;;;;;;;11.7;100.0;101830;;;;
2022/05/28 02:52:01;;;;;;;0.7;0.7;;;;;;;11.7;100.0;101820;;;;
2022/05/28 02:53:01;;;;;;;0.7;0.7;;;;;;;11.7;100.0;101820;;;;
2022/05/28 02:54:00;;;;;;;0.7;0.7;;;;;;;11.8;100.0;101820;;;;
2022/05/28 02:55:00;;;;;;;0.7;0.7;;;;;;;11.8;100.0;101820;;;;
2022/05/28 02:56:00;;;;;;;0.7;0.7;;;;;;;11.7;100.0;101820;;;;
2022/05/28 02:57:01;;;;;;;0.7;0.7;;;;;;;11.7;100.0;101820;;;;
2022/05/28 02:58:00;;;;;;;0.7;0.7;;;;;;;11.6;100.0;101830;;;;
2022/05/28 02:59:00;;;;;;;0.7;0.7;;;;;;;11.6;100.0;101830;;;;
2022/05/28 03:00:00;;;;;;;0.7;0.7;;;;;;;11.7;100.0;101830;;;;
2022/05/28 03:01:01;;;;;;;0.7;0.7;;;;;;;11.7;100.0;101830;;;;
2022/05/28 03:02:00;;;;;;;0.7;0.7;;;;;;;11.6;100.0;101830;;;;
2022/05/28 03:03:00;;;;;;;0.7;0.7;;;;;;;11.6;100.0;101830;;;;
2022/05/28 03:04:00;;;;;;;0.7;0.7;;;;;;;11.7;100.0;101830;;;;
2022/05/28 03:05:00;;;;;;;0.7;0.7;;;;;;;11.7;100.0;101830;;;;
2022/05/28 03:06:00;;;;;;;0.7;0.7;;;;;;;11.7;100.0;101840;;;;
2022/05/28 03:07:00;;;;;;;0.7;0.7;;;;;;;11.7;100.0;101840;;;;
2022/05/28 03:08:00;;;;;;;0.7;0.7;;;;;;;11.7;100.0;101840;;;;
2022/05/28 03:09:00;;;;;;;0.7;0.7;;;;;;;11.7;100.0;101840;;;;
2022/05/28 03:10:00;;;;;;;0.7;0.7;;;;;;;11.6;100.0;101840;;;;
2022/05/28 03:11:00;;;;;;;0.7;0.7;;;;;;;11.6;100.0;101840;;;;
2022/05/28 03:12:00;;;;;;;0.7;0.7;;;;;;;11.6;100.0;101840;;;;
2022/05/28 03:13:00;;;;;;;0.7;0.7;;;;;;;11.6;100.0;101840;;;;
2022/05/28 03:14:00;;;;;;;0.7;0.7;;;;;;;11.6;100.0;101840;;;;
2022/05/28 03:15:00;;;;;;;0.7;0.7;;;;;;;11.6;100.0;101840;;;;
2022/05/28 03:16:00;;;;;;;0.7;0.7;;;;;;;11.6;100.0;101840;;;;
2022/05/28 03:17:00;;;;;;;0.7;0.7;;;;;;;11.6;100.0;101840;;;;
2022/05/28 03:18:00;;;;;;;0.7;0.7;;;;;;;11.6;100.0;101840;;;;
2022/05/28 03:19:00;;;;;;;0.7;0.7;;;;;;;11.6;100.0;101840;;;;
2022/05/28 03:20:01;;;;;;;0.7;0.7;;;;;;;11.6;100.0;101850;;;;
2022/05/28 03:21:00;;;;;;;0.7;0.7;;;;;;;11.6;100.0;101850;;;;
2022/05/28 03:22:00;;;;;;;0.7;0.7;;;;;;;11.7;100.0;101840;;;;
2022/05/28 03:23:00;;;;;;;0.7;0.7;;;;;;;11.7;100.0;101840;;;;
2022/05/28 03:24:00;;;;;;;0.7;0.7;;;;;;;11.6;100.0;101840;;;;
2022/05/28 03:25:00;;;;;;;0.7;0.7;;;;;;;11.6;100.0;101840;;;;
2022/05/28 03:26:10;;;;;;;0.7;0.7;;;;;;;11.6;100.0;101840;;;;
2022/05/28 03:27:00;;;;;;;0.7;0.7;;;;;;;11.6;100.0;101840;;;;
2022/05/28 03:28:00;;;;;;;0.7;0.7;;;;;;;11.6;100.0;101840;;;;
2022/05/28 03:29:00;;;;;;;0.7;0.7;;;;;;;11.6;100.0;101840;;;;
2022/05/28 03:30:00;;;;;;;0.7;0.7;;;;;;;11.6;100.0;101850;;;;
2022/05/28 03:31:00;;;;;;;0.7;0.7;;;;;;;11.6;100.0;101850;;;;
2022/05/28 03:32:00;;;;;;;0.7;0.7;;;;;;;11.6;100.0;101840;;;;
2022/05/28 03:33:00;;;;;;;0.7;0.7;;;;;;;11.6;100.0;101840;;;;
2022/05/28 03:34:00;;;;;;;0.7;0.7;;;;;;;11.7;100.0;101850;;;;
2022/05/28 03:35:00;;;;;;;0.7;0.7;;;;;;;11.7;100.0;101850;;;;
2022/05/28 03:36:00;;;;;;;0.7;0.7;;;;;;;11.7;100.0;101850;;;;
2022/05/28 03:37:00;;;;;;;0.7;0.7;;;;;;;11.7;100.0;101850;;;;
2022/05/28 03:38:01;;;;;;;0.7;0.7;;;;;;;11.7;100.0;101850;;;;
2022/05/28 03:39:02;;;;;;;0.7;0.7;;;;;;;11.7;100.0;101850;;;;
2022/05/28 03:40:00;;;;;;;0.7;0.7;;;;;;;11.7;100.0;101850;;;;
2022/05/28 03:41:00;;;;;;;0.7;0.7;;;;;;;11.7;100.0;101850;;;;
2022/05/28 03:42:00;;;;;;;0.7;0.7;;;;;;;11.7;100.0;101850;;;;
2022/05/28 03:43:00;;;;;;;0.7;0.7;;;;;;;11.7;100.0;101850;;;;
2022/05/28 03:44:00;;;;;;;0.7;0.7;;;;;;;11.6;100.0;101850;;;;
2022/05/28 03:45:00;;;;;;;0.7;0.7;;;;;;;11.6;100.0;101850;;;;
2022/05/28 03:46:00;;;;;;;0.7;0.7;;;;;;;11.6;100.0;101850;;;;
2022/05/28 03:47:00;;;;;;;0.7;0.7;;;;;;;11.6;100.0;101850;;;;
2022/05/28 03:48:01;;;;;;;0.7;0.7;;;;;;;11.6;100.0;101840;;;;
2022/05/28 03:49:01;;;;;;;0.7;0.7;;;;;;;11.6;100.0;101840;;;;
2022/05/28 03:50:00;;;;;;;0.7;0.7;;;;;;;11.6;100.0;101850;;;;
2022/05/28 03:51:00;;;;;;;0.7;0.7;;;;;;;11.6;100.0;101850;;;;
2022/05/28 03:52:01;;;;;;;0.6;0.6;;;;;;;11.5;100.0;101850;;;;
2022/05/28 03:53:00;;;;;;;0.6;0.6;;;;;;;11.5;100.0;101850;;;;
2022/05/28 03:54:02;;;;;;;0.6;0.6;;;;;;;11.6;100.0;101850;;;;
2022/05/28 03:55:00;;;;;;;0.6;0.6;;;;;;;11.6;100.0;101850;;;;
2022/05/28 03:56:00;;;;;;;0.6;0.6;;;;;;;11.5;100.0;101860;;;;
2022/05/28 03:57:03;;;;;;;0.6;0.6;;;;;;;11.5;100.0;101860;;;;
2022/05/28 03:58:00;;;;;;;0.6;0.6;;;;;;;11.4;100.0;101860;;;;
2022/05/28 03:59:00;;;;;;;0.6;0.6;;;;;;;11.4;100.0;101860;;;;
2022/05/28 04:00:01;;;;;;;0.6;0.6;;;;;;;11.5;100.0;101860;;;;
2022/05/28 04:01:00;;;;;;;0.6;0.6;;;;;;;11.5;100.0;101860;;;;
2022/05/28 04:02:00;;;;;;;0.6;0.6;;;;;;;11.5;100.0;101860;;;;
2022/05/28 04:03:00;;;;;;;0.6;0.6;;;;;;;11.5;100.0;101860;;;;
2022/05/28 04:04:00;;;;;;;0.6;0.6;;;;;;;11.6;100.0;101860;;;;
2022/05/28 04:05:00;;;;;;;0.6;0.6;;;;;;;11.6;100.0;101860;;;;
2022/05/28 04:06:01;;;;;;;0.6;0.6;;;;;;;11.6;100.0;101860;;;;
2022/05/28 04:07:00;;;;;;;0.6;0.6;;;;;;;11.6;100.0;101860;;;;
2022/05/28 04:08:00;;;;;;;0.6;0.6;;;;;;;11.6;100.0;101860;;;;
2022/05/28 04:09:00;;;;;;;0.6;0.6;;;;;;;11.6;100.0;101860;;;;
2022/05/28 04:10:00;;;;;;;0.6;0.6;;;;;;;11.6;100.0;101860;;;;
2022/05/28 04:11:00;;;;;;;0.6;0.6;;;;;;;11.6;100.0;101860;;;;
2022/05/28 04:12:00;;;;;;;0.7;0.7;;;;;;;11.6;100.0;101860;;;;
2022/05/28 04:13:00;;;;;;;0.7;0.7;;;;;;;11.6;100.0;101860;;;;
2022/05/28 04:14:00;;;;;;;0.7;0.7;;;;;;;11.7;100.0;101870;;;;
2022/05/28 04:15:00;;;;;;;0.7;0.7;;;;;;;11.7;100.0;101870;;;;
2022/05/28 04:16:00;;;;;;;0.7;0.7;;;;;;;11.7;100.0;101870;;;;
2022/05/28 04:17:00;;;;;;;0.7;0.7;;;;;;;11.7;100.0;101870;;;;
2022/05/28 04:18:00;;;;;;;0.7;0.7;;;;;;;11.7;100.0;101870;;;;
2022/05/28 04:19:00;;;;;;;0.7;0.7;;;;;;;11.7;100.0;101870;;;;
2022/05/28 04:20:00;;;;;;;0.7;0.7;;;;;;;11.7;100.0;101870;;;;
2022/05/28 04:21:00;;;;;;;0.7;0.7;;;;;;;11.7;100.0;101870;;;;
2022/05/28 04:22:00;;;;;;;0.7;0.7;;;;;;;11.7;100.0;101870;;;;
2022/05/28 04:23:00;;;;;;;0.7;0.7;;;;;;;11.7;100.0;101870;;;;
2022/05/28 04:24:00;;;;;;;0.7;0.7;;;;;;;11.7;100.0;101870;;;;
2022/05/28 04:25:00;;;;;;;0.7;0.7;;;;;;;11.7;100.0;101870;;;;
2022/05/28 04:26:00;;;;;;;0.7;0.7;;;;;;;11.7;100.0;101870;;;;
2022/05/28 04:27:00;;;;;;;0.7;0.7;;;;;;;11.7;100.0;101870;;;;
2022/05/28 04:28:00;;;;;;;0.7;0.7;;;;;;;11.6;100.0;101870;;;;
2022/05/28 04:29:00;;;;;;;0.7;0.7;;;;;;;11.6;100.0;101870;;;;
2022/05/28 04:30:00;;;;;;;0.7;0.7;;;;;;;11.6;100.0;101880;;;;
2022/05/28 04:31:00;;;;;;;0.7;0.7;;;;;;;11.6;100.0;101880;;;;
2022/05/28 04:32:00;;;;;;;0.7;0.7;;;;;;;11.8;100.0;101870;;;;
2022/05/28 04:33:00;;;;;;;0.7;0.7;;;;;;;11.8;100.0;101870;;;;
2022/05/28 04:34:00;;;;;;;0.7;0.7;;;;;;;11.8;100.0;101880;;;;
2022/05/28 04:35:00;;;;;;;0.7;0.7;;;;;;;11.8;100.0;101880;;;;
2022/05/28 04:36:00;;;;;;;0.7;0.7;;;;;;;11.7;100.0;101880;;;;
2022/05/28 04:37:01;;;;;;;0.7;0.7;;;;;;;11.7;100.0;101880;;;;
2022/05/28 04:38:00;;;;;;;0.7;0.7;;;;;;;11.8;100.0;101880;;;;
2022/05/28 04:39:00;;;;;;;0.7;0.7;;;;;;;11.8;100.0;101880;;;;
2022/05/28 04:40:00;;;;;;;0.7;0.7;;;;;;;11.9;100.0;101880;;;;
2022/05/28 04:41:02;;;;;;;0.7;0.7;;;;;;;11.9;100.0;101880;;;;
2022/05/28 04:42:00;;;;;;;0.7;0.7;;;;;;;11.9;100.0;101880;;;;
2022/05/28 04:43:00;;;;;;;0.7;0.7;;;;;;;11.9;100.0;101880;;;;
2022/05/28 04:44:00;;;;;;;0.7;0.7;;;;;;;11.9;100.0;101880;;;;
2022/05/28 04:45:00;;;;;;;0.7;0.7;;;;;;;11.9;100.0;101880;;;;
2022/05/28 04:46:00;;;;;;;0.7;0.7;;;;;;;11.9;100.0;101880;;;;
2022/05/28 04:47:00;;;;;;;0.7;0.7;;;;;;;11.9;100.0;101880;;;;
2022/05/28 04:48:00;;;;;;;0.7;0.7;;;;;;;11.9;100.0;101880;;;;
2022/05/28 04:49:00;;;;;;;0.7;0.7;;;;;;;11.9;100.0;101880;;;;
2022/05/28 04:50:00;;;;;;;0.7;0.7;;;;;;;11.9;100.0;101890;;;;
2022/05/28 04:51:00;;;;;;;0.7;0.7;;;;;;;11.9;100.0;101890;;;;
2022/05/28 04:52:00;;;;;;;0.6;0.6;;;;;;;11.9;100.0;101890;;;;
2022/05/28 04:53:00;;;;;;;0.6;0.6;;;;;;;11.9;100.0;101890;;;;
2022/05/28 04:54:00;;;;;;;0.6;0.6;;;;;;;12.0;100.0;101880;;;;
2022/05/28 04:55:00;;;;;;;0.6;0.6;;;;;;;12.0;100.0;101880;;;;
2022/05/28 04:56:00;;;;;;;0.6;0.6;;;;;;;12.0;100.0;101880;;;;
2022/05/28 04:57:00;;;;;;;0.6;0.6;;;;;;;12.0;100.0;101880;;;;
2022/05/28 04:58:00;;;;;;;0.6;0.6;;;;;;;12.1;100.0;101890;;;;
2022/05/28 04:59:00;;;;;;;0.6;0.6;;;;;;;12.1;100.0;101890;;;;
2022/05/28 05:00:00;;;;;;;0.6;0.6;;;;;;;12.1;100.0;101880;;;;
2022/05/28 05:01:00;;;;;;;0.6;0.6;;;;;;;12.1;100.0;101880;;;;
2022/05/28 05:02:00;;;;;;;0.6;0.6;;;;;;;12.2;100.0;101890;;;;
2022/05/28 05:03:00;;;;;;;0.6;0.6;;;;;;;12.2;100.0;101890;;;;
2022/05/28 05:04:00;;;;;;;0.6;0.6;;;;;;;12.2;100.0;101890;;;;
2022/05/28 05:05:00;;;;;;;0.6;0.6;;;;;;;12.2;100.0;101890;;;;
2022/05/28 05:06:00;;;;;;;0.6;0.6;;;;;;;12.3;100.0;101890;;;;
2022/05/28 05:07:00;;;;;;;0.6;0.6;;;;;;;12.3;100.0;101890;;;;
2022/05/28 05:08:00;;;;;;;0.6;0.6;;;;;;;12.3;100.0;101890;;;;
2022/05/28 05:09:00;;;;;;;0.6;0.6;;;;;;;12.3;100.0;101890;;;;
2022/05/28 05:10:00;;;;;;;0.6;0.6;;;;;;;12.4;100.0;101900;;;;
2022/05/28 05:11:00;;;;;;;0.6;0.6;;;;;;;12.4;100.0;101900;;;;
2022/05/28 05:12:00;;;;;;;0.6;0.6;;;;;;;12.4;100.0;101900;;;;
2022/05/28 05:13:00;;;;;;;0.6;0.6;;;;;;;12.4;100.0;101900;;;;
2022/05/28 05:14:00;;;;;;;0.6;0.6;;;;;;;12.5;100.0;101900;;;;
2022/05/28 05:15:00;;;;;;;0.6;0.6;;;;;;;12.5;100.0;101900;;;;
2022/05/28 05:16:00;;;;;;;0.6;0.6;;;;;;;12.6;100.0;101890;;;;
2022/05/28 05:17:00;;;;;;;0.6;0.6;;;;;;;12.6;100.0;101890;;;;
2022/05/28 05:18:00;;;;;;;0.6;0.6;;;;;;;12.5;100.0;101900;;;;
2022/05/28 05:19:00;;;;;;;0.6;0.6;;;;;;;12.5;100.0;101900;;;;
2022/05/28 05:20:00;;;;;;;0.6;0.6;;;;;;;12.5;100.0;101900;;;;
2022/05/28 05:21:00;;;;;;;0.6;0.6;;;;;;;12.5;100.0;101900;;;;
2022/05/28 05:22:00;;;;;;;0.6;0.6;;;;;;;12.6;100.0;101900;;;;
2022/05/28 05:23:00;;;;;;;0.6;0.6;;;;;;;12.6;100.0;101900;;;;
2022/05/28 05:24:00;;;;;;;0.6;0.6;;;;;;;12.6;100.0;101900;;;;
2022/05/28 05:25:00;;;;;;;0.6;0.6;;;;;;;12.6;100.0;101900;;;;
2022/05/28 05:26:00;;;;;;;0.6;0.6;;;;;;;12.6;100.0;101900;;;;
2022/05/28 05:27:00;;;;;;;0.6;0.6;;;;;;;12.6;100.0;101900;;;;
2022/05/28 05:28:00;;;;;;;0.6;0.6;;;;;;;12.7;100.0;101900;;;;
2022/05/28 05:29:00;;;;;;;0.6;0.6;;;;;;;12.7;100.0;101900;;;;
2022/05/28 05:30:00;;;;;;;0.6;0.6;;;;;;;12.7;100.0;101900;;;;
2022/05/28 05:31:00;;;;;;;0.6;0.6;;;;;;;12.7;100.0;101900;;;;
2022/05/28 05:32:00;;;;;;;0.6;0.6;;;;;;;12.7;100.0;101900;;;;
2022/05/28 05:33:00;;;;;;;0.6;0.6;;;;;;;12.7;100.0;101900;;;;
2022/05/28 05:34:00;;;;;;;0.6;0.6;;;;;;;12.8;100.0;101900;;;;
2022/05/28 05:35:00;;;;;;;0.6;0.6;;;;;;;12.8;100.0;101900;;;;
2022/05/28 05:36:00;;;;;;;0.6;0.6;;;;;;;12.8;100.0;101900;;;;
2022/05/28 05:37:00;;;;;;;0.6;0.6;;;;;;;12.8;100.0;101900;;;;
2022/05/28 05:38:05;;;;;;;0.6;0.6;;;;;;;12.8;100.0;101900;;;;
2022/05/28 05:39:00;;;;;;;0.6;0.6;;;;;;;12.8;100.0;101900;;;;
2022/05/28 05:40:00;;;;;;;0.6;0.6;;;;;;;12.9;100.0;101900;;;;
2022/05/28 05:41:00;;;;;;;0.6;0.6;;;;;;;12.9;100.0;101900;;;;
2022/05/28 05:42:00;;;;;;;0.6;0.6;;;;;;;12.9;100.0;101900;;;;
2022/05/28 05:43:00;;;;;;;0.6;0.6;;;;;;;12.9;100.0;101900;;;;
2022/05/28 05:44:00;;;;;;;0.6;0.6;;;;;;;12.9;100.0;101900;;;;
2022/05/28 05:45:00;;;;;;;0.6;0.6;;;;;;;12.9;100.0;101900;;;;
2022/05/28 05:46:01;;;;;;;0.6;0.6;;;;;;;12.9;100.0;101910;;;;
2022/05/28 05:47:00;;;;;;;0.6;0.6;;;;;;;12.9;100.0;101910;;;;
2022/05/28 05:48:00;;;;;;;0.6;0.6;;;;;;;13.1;100.0;101900;;;;
2022/05/28 05:49:00;;;;;;;0.6;0.6;;;;;;;13.1;100.0;101900;;;;
2022/05/28 05:50:00;;;;;;;0.6;0.6;;;;;;;13.0;100.0;101910;;;;
2022/05/28 05:51:04;;;;;;;0.6;0.6;;;;;;;13.0;100.0;101910;;;;
2022/05/28 05:52:00;;;;;;;0.5;0.5;;;;;;;13.1;100.0;101910;;;;
2022/05/28 05:53:00;;;;;;;0.5;0.5;;;;;;;13.1;100.0;101910;;;;
2022/05/28 05:54:00;;;;;;;0.5;0.5;;;;;;;13.2;100.0;101920;;;;
2022/05/28 05:55:00;;;;;;;0.5;0.5;;;;;;;13.2;100.0;101920;;;;
2022/05/28 05:56:00;;;;;;;0.5;0.5;;;;;;;13.2;100.0;101920;;;;
2022/05/28 05:57:00;;;;;;;0.5;0.5;;;;;;;13.2;100.0;101920;;;;
2022/05/28 05:58:00;;;;;;;0.5;0.5;;;;;;;13.3;100.0;101910;;;;
2022/05/28 05:59:00;;;;;;;0.5;0.5;;;;;;;13.3;100.0;101910;;;;
2022/05/28 06:00:00;;;;;;;0.5;0.5;;;;;;;13.4;100.0;101920;;;;
2022/05/28 06:01:02;;;;;;;0.5;0.5;;;;;;;13.4;100.0;101920;;;;
2022/05/28 06:02:00;;;;;;;0.5;0.5;;;;;;;13.5;100.0;101920;;;;
2022/05/28 06:03:00;;;;;;;0.5;0.5;;;;;;;13.5;100.0;101920;;;;
2022/05/28 06:04:00;;;;;;;0.5;0.5;;;;;;;13.4;100.0;101910;;;;
2022/05/28 06:05:00;;;;;;;0.5;0.5;;;;;;;13.4;100.0;101910;;;;
2022/05/28 06:06:01;;;;;;;0.5;0.5;;;;;;;13.5;100.0;101910;;;;
2022/05/28 06:07:00;;;;;;;0.5;0.5;;;;;;;13.5;100.0;101910;;;;
2022/05/28 06:08:00;;;;;;;0.5;0.5;;;;;;;13.4;100.0;101920;;;;
2022/05/28 06:09:00;;;;;;;0.5;0.5;;;;;;;13.4;100.0;101920;;;;
2022/05/28 06:10:00;;;;;;;0.5;0.5;;;;;;;13.4;100.0;101920;;;;
2022/05/28 06:11:00;;;;;;;0.5;0.5;;;;;;;13.4;100.0;101920;;;;
2022/05/28 06:12:00;;;;;;;0.6;0.6;;;;;;;13.5;100.0;101920;;;;
2022/05/28 06:13:00;;;;;;;0.6;0.6;;;;;;;13.5;100.0;101920;;;;
2022/05/28 06:14:00;;;;;;;0.6;0.6;;;;;;;13.5;100.0;101920;;;;
2022/05/28 06:15:00;;;;;;;0.6;0.6;;;;;;;13.5;100.0;101920;;;;
2022/05/28 06:16:00;;;;;;;0.6;0.6;;;;;;;13.5;100.0;101920;;;;
2022/05/28 06:17:00;;;;;;;0.6;0.6;;;;;;;13.5;100.0;101920;;;;
2022/05/28 06:18:00;;;;;;;0.6;0.6;;;;;;;13.4;100.0;101920;;;;
2022/05/28 06:19:01;;;;;;;0.6;0.6;;;;;;;13.4;100.0;101920;;;;
2022/05/28 06:20:00;;;;;;;0.6;0.6;;;;;;;13.5;100.0;101920;;;;
2022/05/28 06:21:00;;;;;;;0.6;0.6;;;;;;;13.5;100.0;101920;;;;
2022/05/28 06:22:01;;;;;;;0.6;0.6;;;;;;;13.6;100.0;101920;;;;